sensor_id;sensor_type;location;lat;lon;timestamp;P1;durP1;ratioP1;P2;durP2;ratioP2
10987;SDS011;5547;42.672;23.230;2023-06-19T00:00:10;6.80;;;4.50;;
10987;SDS011;5547;42.672;23.230;2023-06-19T00:03:15;5.43;;;4.50;;
10987;SDS011;5547;42.672;23.230;2023-06-19T00:06:16;6.07;;;4.53;;
10987;SDS011;5547;42.672;23.230;2023-06-19T00:09:16;7.30;;;4.63;;
10987;SDS011;5547;42.672;23.230;2023-06-19T00:12:17;5.97;;;4.78;;
10987;SDS011;5547;42.672;23.230;2023-06-19T00:15:17;5.10;;;4.23;;
10987;SDS011;5547;42.672;23.230;2023-06-19T00:18:18;6.80;;;4.90;;
10987;SDS011;5547;42.672;23.230;2023-06-19T00:21:19;6.63;;;4.60;;
10987;SDS011;5547;42.672;23.230;2023-06-19T00:24:20;6.43;;;4.90;;
10987;SDS011;5547;42.672;23.230;2023-06-19T00:27:20;4.82;;;4.40;;
10987;SDS011;5547;42.672;23.230;2023-06-19T00:30:20;6.55;;;4.88;;
10987;SDS011;5547;42.672;23.230;2023-06-19T00:33:21;6.27;;;4.73;;
10987;SDS011;5547;42.672;23.230;2023-06-19T00:36:21;6.20;;;4.87;;
10987;SDS011;5547;42.672;23.230;2023-06-19T00:39:24;5.47;;;4.63;;
10987;SDS011;5547;42.672;23.230;2023-06-19T00:42:26;6.43;;;4.90;;
10987;SDS011;5547;42.672;23.230;2023-06-19T00:45:28;6.30;;;4.70;;
10987;SDS011;5547;42.672;23.230;2023-06-19T00:48:29;5.50;;;4.50;;
10987;SDS011;5547;42.672;23.230;2023-06-19T00:51:31;5.35;;;4.85;;
10987;SDS011;5547;42.672;23.230;2023-06-19T00:54:32;5.33;;;4.40;;
10987;SDS011;5547;42.672;23.230;2023-06-19T00:57:32;5.50;;;5.00;;
10987;SDS011;5547;42.672;23.230;2023-06-19T01:00:33;5.77;;;4.70;;
10987;SDS011;5547;42.672;23.230;2023-06-19T01:03:33;5.30;;;4.70;;
10987;SDS011;5547;42.672;23.230;2023-06-19T01:06:42;5.28;;;4.30;;
10987;SDS011;5547;42.672;23.230;2023-06-19T01:09:55;5.65;;;4.78;;
10987;SDS011;5547;42.672;23.230;2023-06-19T01:13:06;5.40;;;4.88;;
10987;SDS011;5547;42.672;23.230;2023-06-19T01:16:10;5.85;;;4.60;;
10987;SDS011;5547;42.672;23.230;2023-06-19T01:19:13;5.32;;;4.60;;
10987;SDS011;5547;42.672;23.230;2023-06-19T01:22:24;6.37;;;4.80;;
10987;SDS011;5547;42.672;23.230;2023-06-19T01:25:28;5.65;;;5.03;;
10987;SDS011;5547;42.672;23.230;2023-06-19T01:28:28;5.13;;;4.63;;
10987;SDS011;5547;42.672;23.230;2023-06-19T01:31:37;6.40;;;5.60;;
10987;SDS011;5547;42.672;23.230;2023-06-19T01:34:42;6.50;;;5.05;;
10987;SDS011;5547;42.672;23.230;2023-06-19T01:37:43;7.90;;;5.75;;
10987;SDS011;5547;42.672;23.230;2023-06-19T01:40:48;6.47;;;4.90;;
10987;SDS011;5547;42.672;23.230;2023-06-19T01:43:49;6.72;;;5.47;;
10987;SDS011;5547;42.672;23.230;2023-06-19T01:46:51;8.93;;;5.57;;
10987;SDS011;5547;42.672;23.230;2023-06-19T01:49:51;6.88;;;5.40;;
10987;SDS011;5547;42.672;23.230;2023-06-19T01:52:52;6.40;;;5.17;;
10987;SDS011;5547;42.672;23.230;2023-06-19T01:55:52;6.60;;;6.00;;
10987;SDS011;5547;42.672;23.230;2023-06-19T01:58:53;6.03;;;5.43;;
10987;SDS011;5547;42.672;23.230;2023-06-19T02:01:55;6.38;;;5.10;;
10987;SDS011;5547;42.672;23.230;2023-06-19T02:04:55;9.45;;;5.93;;
10987;SDS011;5547;42.672;23.230;2023-06-19T02:07:56;9.00;;;7.60;;
10987;SDS011;5547;42.672;23.230;2023-06-19T02:10:57;7.37;;;6.20;;
10987;SDS011;5547;42.672;23.230;2023-06-19T02:13:57;7.03;;;5.50;;
10987;SDS011;5547;42.672;23.230;2023-06-19T02:16:58;10.50;;;7.80;;
10987;SDS011;5547;42.672;23.230;2023-06-19T02:19:58;6.63;;;5.60;;
10987;SDS011;5547;42.672;23.230;2023-06-19T02:22:58;7.10;;;5.60;;
10987;SDS011;5547;42.672;23.230;2023-06-19T02:25:59;6.30;;;5.47;;
10987;SDS011;5547;42.672;23.230;2023-06-19T02:28:59;7.90;;;5.57;;
10987;SDS011;5547;42.672;23.230;2023-06-19T02:32:00;7.17;;;6.00;;
10987;SDS011;5547;42.672;23.230;2023-06-19T02:35:02;6.82;;;6.00;;
10987;SDS011;5547;42.672;23.230;2023-06-19T02:38:03;7.25;;;6.03;;
10987;SDS011;5547;42.672;23.230;2023-06-19T02:41:04;7.35;;;6.15;;
10987;SDS011;5547;42.672;23.230;2023-06-19T02:44:05;7.63;;;6.30;;
10987;SDS011;5547;42.672;23.230;2023-06-19T02:47:05;7.60;;;6.33;;
10987;SDS011;5547;42.672;23.230;2023-06-19T02:50:06;8.95;;;6.95;;
10987;SDS011;5547;42.672;23.230;2023-06-19T02:53:07;8.30;;;6.93;;
10987;SDS011;5547;42.672;23.230;2023-06-19T02:56:08;8.93;;;6.43;;
10987;SDS011;5547;42.672;23.230;2023-06-19T02:59:08;8.50;;;6.77;;
10987;SDS011;5547;42.672;23.230;2023-06-19T03:02:08;8.40;;;6.57;;
10987;SDS011;5547;42.672;23.230;2023-06-19T03:05:09;8.50;;;6.97;;
10987;SDS011;5547;42.672;23.230;2023-06-19T03:08:10;9.05;;;6.95;;
10987;SDS011;5547;42.672;23.230;2023-06-19T03:11:11;7.40;;;6.00;;
10987;SDS011;5547;42.672;23.230;2023-06-19T03:14:11;8.47;;;6.70;;
10987;SDS011;5547;42.672;23.230;2023-06-19T03:17:12;7.77;;;6.47;;
10987;SDS011;5547;42.672;23.230;2023-06-19T03:20:12;7.00;;;6.13;;
10987;SDS011;5547;42.672;23.230;2023-06-19T03:23:13;6.93;;;5.70;;
10987;SDS011;5547;42.672;23.230;2023-06-19T03:26:13;8.00;;;6.00;;
10987;SDS011;5547;42.672;23.230;2023-06-19T03:29:14;6.87;;;5.47;;
10987;SDS011;5547;42.672;23.230;2023-06-19T03:32:14;6.27;;;5.67;;
10987;SDS011;5547;42.672;23.230;2023-06-19T03:35:14;7.00;;;5.40;;
10987;SDS011;5547;42.672;23.230;2023-06-19T03:38:15;6.93;;;5.77;;
10987;SDS011;5547;42.672;23.230;2023-06-19T03:41:15;6.73;;;6.03;;
10987;SDS011;5547;42.672;23.230;2023-06-19T03:44:16;6.35;;;4.72;;
10987;SDS011;5547;42.672;23.230;2023-06-19T03:47:16;5.90;;;5.20;;
10987;SDS011;5547;42.672;23.230;2023-06-19T03:50:16;5.77;;;4.50;;
10987;SDS011;5547;42.672;23.230;2023-06-19T03:53:17;5.97;;;4.47;;
10987;SDS011;5547;42.672;23.230;2023-06-19T03:56:17;4.87;;;4.30;;
10987;SDS011;5547;42.672;23.230;2023-06-19T03:59:17;4.93;;;4.43;;
10987;SDS011;5547;42.672;23.230;2023-06-19T04:02:18;4.60;;;4.10;;
10987;SDS011;5547;42.672;23.230;2023-06-19T04:05:18;4.20;;;3.80;;
10987;SDS011;5547;42.672;23.230;2023-06-19T04:08:19;5.78;;;4.25;;
10987;SDS011;5547;42.672;23.230;2023-06-19T04:11:20;4.50;;;3.60;;
10987;SDS011;5547;42.672;23.230;2023-06-19T04:14:20;5.27;;;3.77;;
10987;SDS011;5547;42.672;23.230;2023-06-19T04:17:23;5.03;;;4.40;;
10987;SDS011;5547;42.672;23.230;2023-06-19T04:20:23;4.60;;;4.13;;
10987;SDS011;5547;42.672;23.230;2023-06-19T04:23:23;5.32;;;3.63;;
10987;SDS011;5547;42.672;23.230;2023-06-19T04:26:24;4.60;;;4.03;;
10987;SDS011;5547;42.672;23.230;2023-06-19T04:29:24;4.90;;;4.03;;
10987;SDS011;5547;42.672;23.230;2023-06-19T04:32:25;4.40;;;3.83;;
10987;SDS011;5547;42.672;23.230;2023-06-19T04:35:25;4.43;;;4.03;;
10987;SDS011;5547;42.672;23.230;2023-06-19T04:38:26;4.38;;;3.83;;
10987;SDS011;5547;42.672;23.230;2023-06-19T04:41:27;5.27;;;4.33;;
10987;SDS011;5547;42.672;23.230;2023-06-19T04:44:27;4.10;;;3.40;;
10987;SDS011;5547;42.672;23.230;2023-06-19T04:47:30;3.90;;;3.50;;
10987;SDS011;5547;42.672;23.230;2023-06-19T04:50:30;5.03;;;3.60;;
10987;SDS011;5547;42.672;23.230;2023-06-19T04:53:30;4.13;;;3.73;;
10987;SDS011;5547;42.672;23.230;2023-06-19T04:56:31;4.23;;;3.83;;
10987;SDS011;5547;42.672;23.230;2023-06-19T04:59:32;4.90;;;3.60;;
10987;SDS011;5547;42.672;23.230;2023-06-19T05:02:33;5.10;;;3.90;;
10987;SDS011;5547;42.672;23.230;2023-06-19T05:05:34;4.77;;;4.10;;
10987;SDS011;5547;42.672;23.230;2023-06-19T05:08:34;3.93;;;3.43;;
10987;SDS011;5547;42.672;23.230;2023-06-19T05:11:34;4.40;;;3.90;;
10987;SDS011;5547;42.672;23.230;2023-06-19T05:14:35;4.50;;;3.63;;
10987;SDS011;5547;42.672;23.230;2023-06-19T05:17:36;5.00;;;3.85;;
10987;SDS011;5547;42.672;23.230;2023-06-19T05:20:40;4.63;;;3.65;;
10987;SDS011;5547;42.672;23.230;2023-06-19T05:23:40;3.92;;;3.55;;
10987;SDS011;5547;42.672;23.230;2023-06-19T05:26:41;5.13;;;3.93;;
10987;SDS011;5547;42.672;23.230;2023-06-19T05:29:42;3.83;;;3.47;;
10987;SDS011;5547;42.672;23.230;2023-06-19T05:32:42;4.10;;;3.65;;
10987;SDS011;5547;42.672;23.230;2023-06-19T05:35:43;4.23;;;3.80;;
10987;SDS011;5547;42.672;23.230;2023-06-19T05:38:43;7.37;;;4.10;;
10987;SDS011;5547;42.672;23.230;2023-06-19T05:41:44;4.40;;;4.00;;
10987;SDS011;5547;42.672;23.230;2023-06-19T05:44:45;5.00;;;4.27;;
10987;SDS011;5547;42.672;23.230;2023-06-19T05:47:46;4.40;;;3.80;;
10987;SDS011;5547;42.672;23.230;2023-06-19T05:50:46;4.60;;;4.17;;
10987;SDS011;5547;42.672;23.230;2023-06-19T05:53:47;5.40;;;4.13;;
10987;SDS011;5547;42.672;23.230;2023-06-19T05:56:49;5.18;;;4.32;;
10987;SDS011;5547;42.672;23.230;2023-06-19T05:59:50;4.93;;;3.47;;
10987;SDS011;5547;42.672;23.230;2023-06-19T06:02:51;5.00;;;3.92;;
10987;SDS011;5547;42.672;23.230;2023-06-19T06:05:51;6.82;;;4.00;;
10987;SDS011;5547;42.672;23.230;2023-06-19T06:08:52;4.90;;;4.03;;
10987;SDS011;5547;42.672;23.230;2023-06-19T06:11:52;5.60;;;3.90;;
10987;SDS011;5547;42.672;23.230;2023-06-19T06:14:53;4.23;;;3.80;;
10987;SDS011;5547;42.672;23.230;2023-06-19T06:17:53;5.07;;;4.30;;
10987;SDS011;5547;42.672;23.230;2023-06-19T06:20:54;5.07;;;3.95;;
10987;SDS011;5547;42.672;23.230;2023-06-19T06:23:54;5.25;;;4.00;;
10987;SDS011;5547;42.672;23.230;2023-06-19T06:26:55;4.77;;;3.60;;
10987;SDS011;5547;42.672;23.230;2023-06-19T06:29:55;4.87;;;4.13;;
10987;SDS011;5547;42.672;23.230;2023-06-19T06:32:56;4.03;;;3.60;;
10987;SDS011;5547;42.672;23.230;2023-06-19T06:35:57;6.53;;;4.00;;
10987;SDS011;5547;42.672;23.230;2023-06-19T06:38:58;3.92;;;3.53;;
10987;SDS011;5547;42.672;23.230;2023-06-19T06:41:59;4.63;;;3.87;;
10987;SDS011;5547;42.672;23.230;2023-06-19T06:44:59;4.43;;;3.23;;
10987;SDS011;5547;42.672;23.230;2023-06-19T06:47:59;5.23;;;3.57;;
10987;SDS011;5547;42.672;23.230;2023-06-19T06:51:00;5.53;;;4.30;;
10987;SDS011;5547;42.672;23.230;2023-06-19T06:54:01;4.80;;;3.92;;
10987;SDS011;5547;42.672;23.230;2023-06-19T06:57:01;4.75;;;3.60;;
10987;SDS011;5547;42.672;23.230;2023-06-19T07:00:03;4.32;;;3.92;;
10987;SDS011;5547;42.672;23.230;2023-06-19T07:03:04;4.15;;;3.70;;
10987;SDS011;5547;42.672;23.230;2023-06-19T07:06:05;4.90;;;3.80;;
10987;SDS011;5547;42.672;23.230;2023-06-19T07:09:05;4.50;;;4.00;;
10987;SDS011;5547;42.672;23.230;2023-06-19T07:12:05;4.07;;;3.60;;
10987;SDS011;5547;42.672;23.230;2023-06-19T07:15:07;4.78;;;3.45;;
10987;SDS011;5547;42.672;23.230;2023-06-19T07:18:07;4.10;;;3.70;;
10987;SDS011;5547;42.672;23.230;2023-06-19T07:21:10;4.30;;;3.70;;
10987;SDS011;5547;42.672;23.230;2023-06-19T07:24:15;4.57;;;3.67;;
10987;SDS011;5547;42.672;23.230;2023-06-19T07:27:15;4.93;;;3.40;;
10987;SDS011;5547;42.672;23.230;2023-06-19T07:30:15;4.40;;;3.43;;
10987;SDS011;5547;42.672;23.230;2023-06-19T07:33:16;5.47;;;3.47;;
10987;SDS011;5547;42.672;23.230;2023-06-19T07:36:16;4.63;;;3.70;;
10987;SDS011;5547;42.672;23.230;2023-06-19T07:39:17;4.90;;;3.77;;
10987;SDS011;5547;42.672;23.230;2023-06-19T07:42:18;4.40;;;3.53;;
10987;SDS011;5547;42.672;23.230;2023-06-19T07:45:19;4.47;;;3.72;;
10987;SDS011;5547;42.672;23.230;2023-06-19T07:48:19;5.10;;;3.67;;
10987;SDS011;5547;42.672;23.230;2023-06-19T07:51:20;4.27;;;3.60;;
10987;SDS011;5547;42.672;23.230;2023-06-19T07:54:20;4.53;;;3.83;;
10987;SDS011;5547;42.672;23.230;2023-06-19T07:57:21;4.00;;;3.60;;
10987;SDS011;5547;42.672;23.230;2023-06-19T08:00:23;4.60;;;3.58;;
10987;SDS011;5547;42.672;23.230;2023-06-19T08:03:24;3.80;;;3.30;;
10987;SDS011;5547;42.672;23.230;2023-06-19T08:06:24;4.63;;;3.57;;
10987;SDS011;5547;42.672;23.230;2023-06-19T08:09:25;3.87;;;3.23;;
10987;SDS011;5547;42.672;23.230;2023-06-19T08:12:25;3.60;;;3.20;;
10987;SDS011;5547;42.672;23.230;2023-06-19T08:15:26;3.83;;;3.07;;
10987;SDS011;5547;42.672;23.230;2023-06-19T08:18:26;4.05;;;3.30;;
10987;SDS011;5547;42.672;23.230;2023-06-19T08:21:27;5.20;;;3.63;;
10987;SDS011;5547;42.672;23.230;2023-06-19T08:24:27;3.72;;;3.10;;
10987;SDS011;5547;42.672;23.230;2023-06-19T08:27:28;4.60;;;3.20;;
10987;SDS011;5547;42.672;23.230;2023-06-19T08:30:29;3.42;;;3.08;;
10987;SDS011;5547;42.672;23.230;2023-06-19T08:33:29;4.20;;;3.80;;
10987;SDS011;5547;42.672;23.230;2023-06-19T08:36:30;4.30;;;3.67;;
10987;SDS011;5547;42.672;23.230;2023-06-19T08:39:31;3.90;;;3.50;;
10987;SDS011;5547;42.672;23.230;2023-06-19T08:42:31;4.47;;;3.42;;
10987;SDS011;5547;42.672;23.230;2023-06-19T08:45:32;3.60;;;3.17;;
10987;SDS011;5547;42.672;23.230;2023-06-19T08:48:34;3.60;;;3.20;;
10987;SDS011;5547;42.672;23.230;2023-06-19T08:51:37;4.43;;;3.53;;
10987;SDS011;5547;42.672;23.230;2023-06-19T08:54:38;3.27;;;2.97;;
10987;SDS011;5547;42.672;23.230;2023-06-19T08:57:43;3.80;;;3.40;;
10987;SDS011;5547;42.672;23.230;2023-06-19T09:00:46;4.10;;;3.70;;
10987;SDS011;5547;42.672;23.230;2023-06-19T09:03:47;4.18;;;3.78;;
10987;SDS011;5547;42.672;23.230;2023-06-19T09:06:52;4.35;;;3.85;;
10987;SDS011;5547;42.672;23.230;2023-06-19T09:09:54;4.25;;;3.50;;
10987;SDS011;5547;42.672;23.230;2023-06-19T09:12:59;3.90;;;3.40;;
10987;SDS011;5547;42.672;23.230;2023-06-19T09:16:01;3.95;;;3.22;;
10987;SDS011;5547;42.672;23.230;2023-06-19T09:19:03;4.07;;;3.33;;
10987;SDS011;5547;42.672;23.230;2023-06-19T09:22:05;4.10;;;3.30;;
10987;SDS011;5547;42.672;23.230;2023-06-19T09:25:07;3.85;;;3.40;;
10987;SDS011;5547;42.672;23.230;2023-06-19T09:28:16;4.57;;;3.40;;
10987;SDS011;5547;42.672;23.230;2023-06-19T09:31:20;4.60;;;3.20;;
10987;SDS011;5547;42.672;23.230;2023-06-19T09:34:32;3.83;;;3.20;;
10987;SDS011;5547;42.672;23.230;2023-06-19T09:37:32;6.68;;;3.83;;
10987;SDS011;5547;42.672;23.230;2023-06-19T09:40:33;4.70;;;3.22;;
10987;SDS011;5547;42.672;23.230;2023-06-19T09:43:36;3.63;;;3.33;;
10987;SDS011;5547;42.672;23.230;2023-06-19T09:46:38;4.13;;;3.47;;
10987;SDS011;5547;42.672;23.230;2023-06-19T09:49:47;5.35;;;3.72;;
10987;SDS011;5547;42.672;23.230;2023-06-19T09:52:50;4.32;;;3.42;;
10987;SDS011;5547;42.672;23.230;2023-06-19T09:55:51;5.60;;;3.72;;
10987;SDS011;5547;42.672;23.230;2023-06-19T09:58:52;4.00;;;3.60;;
10987;SDS011;5547;42.672;23.230;2023-06-19T10:01:54;5.25;;;3.70;;
10987;SDS011;5547;42.672;23.230;2023-06-19T10:04:55;4.78;;;3.55;;
10987;SDS011;5547;42.672;23.230;2023-06-19T10:07:56;4.00;;;3.40;;
10987;SDS011;5547;42.672;23.230;2023-06-19T10:11:00;4.18;;;3.67;;
10987;SDS011;5547;42.672;23.230;2023-06-19T10:14:05;4.03;;;3.60;;
10987;SDS011;5547;42.672;23.230;2023-06-19T10:17:10;4.95;;;3.17;;
10987;SDS011;5547;42.672;23.230;2023-06-19T10:23:25;3.65;;;3.35;;
10987;SDS011;5547;42.672;23.230;2023-06-19T10:26:34;3.95;;;3.15;;
10987;SDS011;5547;42.672;23.230;2023-06-19T10:29:39;4.47;;;3.45;;
10987;SDS011;5547;42.672;23.230;2023-06-19T10:32:40;3.70;;;3.20;;
10987;SDS011;5547;42.672;23.230;2023-06-19T10:35:40;3.95;;;3.45;;
10987;SDS011;5547;42.672;23.230;2023-06-19T10:38:41;4.82;;;3.80;;
10987;SDS011;5547;42.672;23.230;2023-06-19T10:41:47;4.20;;;3.60;;
10987;SDS011;5547;42.672;23.230;2023-06-19T10:44:47;5.17;;;4.07;;
10987;SDS011;5547;42.672;23.230;2023-06-19T10:47:48;4.23;;;3.60;;
10987;SDS011;5547;42.672;23.230;2023-06-19T10:50:50;5.30;;;4.77;;
10987;SDS011;5547;42.672;23.230;2023-06-19T10:53:53;4.63;;;3.95;;
10987;SDS011;5547;42.672;23.230;2023-06-19T10:56:55;4.47;;;3.80;;
10987;SDS011;5547;42.672;23.230;2023-06-19T10:59:57;5.50;;;3.85;;
10987;SDS011;5547;42.672;23.230;2023-06-19T11:02:58;4.75;;;3.70;;
10987;SDS011;5547;42.672;23.230;2023-06-19T11:05:59;4.37;;;3.93;;
10987;SDS011;5547;42.672;23.230;2023-06-19T11:08:59;5.10;;;4.00;;
10987;SDS011;5547;42.672;23.230;2023-06-19T11:12:05;5.63;;;4.00;;
10987;SDS011;5547;42.672;23.230;2023-06-19T11:15:09;4.75;;;3.67;;
10987;SDS011;5547;42.672;23.230;2023-06-19T11:18:10;4.40;;;3.80;;
10987;SDS011;5547;42.672;23.230;2023-06-19T11:21:11;4.55;;;3.75;;
10987;SDS011;5547;42.672;23.230;2023-06-19T11:24:12;4.33;;;3.80;;
10987;SDS011;5547;42.672;23.230;2023-06-19T11:27:22;4.32;;;3.50;;
10987;SDS011;5547;42.672;23.230;2023-06-19T11:30:31;4.32;;;3.92;;
10987;SDS011;5547;42.672;23.230;2023-06-19T11:33:32;4.87;;;4.00;;
10987;SDS011;5547;42.672;23.230;2023-06-19T11:36:36;6.70;;;4.10;;
10987;SDS011;5547;42.672;23.230;2023-06-19T11:39:37;5.32;;;4.00;;
10987;SDS011;5547;42.672;23.230;2023-06-19T11:42:45;4.40;;;4.00;;
10987;SDS011;5547;42.672;23.230;2023-06-19T11:45:49;4.97;;;3.95;;
10987;SDS011;5547;42.672;23.230;2023-06-19T11:48:49;5.63;;;4.20;;
10987;SDS011;5547;42.672;23.230;2023-06-19T11:51:50;5.35;;;3.92;;
10987;SDS011;5547;42.672;23.230;2023-06-19T11:54:50;4.47;;;3.88;;
10987;SDS011;5547;42.672;23.230;2023-06-19T11:57:51;5.28;;;3.72;;
10987;SDS011;5547;42.672;23.230;2023-06-19T12:00:52;4.00;;;3.58;;
10987;SDS011;5547;42.672;23.230;2023-06-19T12:03:53;5.90;;;4.07;;
10987;SDS011;5547;42.672;23.230;2023-06-19T12:06:54;5.57;;;4.00;;
10987;SDS011;5547;42.672;23.230;2023-06-19T12:09:54;4.70;;;4.10;;
10987;SDS011;5547;42.672;23.230;2023-06-19T12:12:55;4.47;;;4.07;;
10987;SDS011;5547;42.672;23.230;2023-06-19T12:15:55;4.20;;;3.80;;
10987;SDS011;5547;42.672;23.230;2023-06-19T12:18:55;4.80;;;4.00;;
10987;SDS011;5547;42.672;23.230;2023-06-19T12:21:56;4.30;;;3.80;;
10987;SDS011;5547;42.672;23.230;2023-06-19T12:24:57;4.57;;;3.90;;
10987;SDS011;5547;42.672;23.230;2023-06-19T12:27:57;4.63;;;3.50;;
10987;SDS011;5547;42.672;23.230;2023-06-19T12:30:57;5.22;;;3.88;;
10987;SDS011;5547;42.672;23.230;2023-06-19T12:33:58;4.47;;;4.07;;
10987;SDS011;5547;42.672;23.230;2023-06-19T12:36:59;6.40;;;3.83;;
10987;SDS011;5547;42.672;23.230;2023-06-19T12:39:59;5.37;;;4.03;;
10987;SDS011;5547;42.672;23.230;2023-06-19T12:43:00;4.77;;;4.27;;
10987;SDS011;5547;42.672;23.230;2023-06-19T12:46:00;4.73;;;4.10;;
10987;SDS011;5547;42.672;23.230;2023-06-19T12:49:00;4.37;;;3.90;;
10987;SDS011;5547;42.672;23.230;2023-06-19T12:52:01;4.10;;;3.70;;
10987;SDS011;5547;42.672;23.230;2023-06-19T12:55:02;4.35;;;3.72;;
10987;SDS011;5547;42.672;23.230;2023-06-19T12:58:02;5.18;;;3.97;;
10987;SDS011;5547;42.672;23.230;2023-06-19T13:01:03;3.87;;;3.47;;
10987;SDS011;5547;42.672;23.230;2023-06-19T13:04:03;5.63;;;3.70;;
10987;SDS011;5547;42.672;23.230;2023-06-19T13:07:04;4.90;;;3.90;;
10987;SDS011;5547;42.672;23.230;2023-06-19T13:10:04;4.60;;;3.57;;
10987;SDS011;5547;42.672;23.230;2023-06-19T13:13:06;4.38;;;3.50;;
10987;SDS011;5547;42.672;23.230;2023-06-19T13:16:06;5.80;;;3.90;;
10987;SDS011;5547;42.672;23.230;2023-06-19T13:19:07;4.17;;;3.70;;
10987;SDS011;5547;42.672;23.230;2023-06-19T13:22:07;4.57;;;3.60;;
10987;SDS011;5547;42.672;23.230;2023-06-19T13:25:08;4.57;;;3.83;;
10987;SDS011;5547;42.672;23.230;2023-06-19T13:28:09;4.93;;;3.40;;
10987;SDS011;5547;42.672;23.230;2023-06-19T13:31:09;5.23;;;3.80;;
10987;SDS011;5547;42.672;23.230;2023-06-19T13:34:10;5.27;;;3.87;;
10987;SDS011;5547;42.672;23.230;2023-06-19T13:37:10;4.20;;;3.40;;
10987;SDS011;5547;42.672;23.230;2023-06-19T13:40:11;4.80;;;3.47;;
10987;SDS011;5547;42.672;23.230;2023-06-19T13:43:12;4.40;;;3.20;;
10987;SDS011;5547;42.672;23.230;2023-06-19T13:46:13;4.18;;;3.22;;
10987;SDS011;5547;42.672;23.230;2023-06-19T13:49:13;4.75;;;3.50;;
10987;SDS011;5547;42.672;23.230;2023-06-19T13:52:14;4.00;;;3.60;;
10987;SDS011;5547;42.672;23.230;2023-06-19T13:55:14;3.83;;;3.40;;
10987;SDS011;5547;42.672;23.230;2023-06-19T13:58:15;4.07;;;3.63;;
10987;SDS011;5547;42.672;23.230;2023-06-19T14:01:16;4.97;;;3.70;;
10987;SDS011;5547;42.672;23.230;2023-06-19T14:04:16;4.03;;;3.40;;
10987;SDS011;5547;42.672;23.230;2023-06-19T14:07:18;3.78;;;3.33;;
10987;SDS011;5547;42.672;23.230;2023-06-19T14:10:21;3.67;;;3.30;;
10987;SDS011;5547;42.672;23.230;2023-06-19T14:13:22;4.47;;;3.60;;
10987;SDS011;5547;42.672;23.230;2023-06-19T14:16:23;3.90;;;3.50;;
10987;SDS011;5547;42.672;23.230;2023-06-19T14:19:24;5.15;;;3.63;;
10987;SDS011;5547;42.672;23.230;2023-06-19T14:22:25;3.97;;;3.47;;
10987;SDS011;5547;42.672;23.230;2023-06-19T14:25:26;5.13;;;3.55;;
10987;SDS011;5547;42.672;23.230;2023-06-19T14:28:26;4.35;;;3.50;;
10987;SDS011;5547;42.672;23.230;2023-06-19T14:31:26;4.00;;;3.50;;
10987;SDS011;5547;42.672;23.230;2023-06-19T14:34:27;5.23;;;3.70;;
10987;SDS011;5547;42.672;23.230;2023-06-19T14:37:27;4.33;;;3.27;;
10987;SDS011;5547;42.672;23.230;2023-06-19T14:40:28;3.97;;;3.28;;
10987;SDS011;5547;42.672;23.230;2023-06-19T14:43:28;6.20;;;3.70;;
10987;SDS011;5547;42.672;23.230;2023-06-19T14:46:30;4.53;;;3.40;;
10987;SDS011;5547;42.672;23.230;2023-06-19T14:49:31;4.78;;;3.60;;
10987;SDS011;5547;42.672;23.230;2023-06-19T14:52:31;4.20;;;3.80;;
10987;SDS011;5547;42.672;23.230;2023-06-19T14:55:32;5.40;;;4.10;;
10987;SDS011;5547;42.672;23.230;2023-06-19T14:58:32;5.07;;;4.00;;
10987;SDS011;5547;42.672;23.230;2023-06-19T15:01:33;5.70;;;3.80;;
10987;SDS011;5547;42.672;23.230;2023-06-19T15:04:33;6.00;;;4.40;;
10987;SDS011;5547;42.672;23.230;2023-06-19T15:07:33;4.80;;;4.07;;
10987;SDS011;5547;42.672;23.230;2023-06-19T15:10:34;4.77;;;4.10;;
10987;SDS011;5547;42.672;23.230;2023-06-19T15:13:34;5.20;;;4.20;;
10987;SDS011;5547;42.672;23.230;2023-06-19T15:16:34;5.10;;;4.00;;
10987;SDS011;5547;42.672;23.230;2023-06-19T15:19:35;5.30;;;4.50;;
10987;SDS011;5547;42.672;23.230;2023-06-19T15:22:36;5.00;;;4.50;;
10987;SDS011;5547;42.672;23.230;2023-06-19T15:25:37;5.75;;;4.18;;
10987;SDS011;5547;42.672;23.230;2023-06-19T15:28:37;5.03;;;4.53;;
10987;SDS011;5547;42.672;23.230;2023-06-19T15:31:37;4.82;;;4.10;;
10987;SDS011;5547;42.672;23.230;2023-06-19T15:34:38;4.20;;;3.75;;
10987;SDS011;5547;42.672;23.230;2023-06-19T15:37:40;5.95;;;4.50;;
10987;SDS011;5547;42.672;23.230;2023-06-19T15:40:41;5.30;;;4.23;;
10987;SDS011;5547;42.672;23.230;2023-06-19T15:43:41;4.23;;;3.83;;
10987;SDS011;5547;42.672;23.230;2023-06-19T15:46:42;5.43;;;3.97;;
10987;SDS011;5547;42.672;23.230;2023-06-19T15:49:42;5.00;;;4.20;;
10987;SDS011;5547;42.672;23.230;2023-06-19T15:52:43;4.57;;;4.17;;
10987;SDS011;5547;42.672;23.230;2023-06-19T15:55:43;5.87;;;4.33;;
10987;SDS011;5547;42.672;23.230;2023-06-19T15:58:43;6.63;;;4.37;;
10987;SDS011;5547;42.672;23.230;2023-06-19T16:01:44;5.17;;;4.67;;
10987;SDS011;5547;42.672;23.230;2023-06-19T16:04:44;4.73;;;4.10;;
10987;SDS011;5547;42.672;23.230;2023-06-19T16:07:45;5.65;;;4.55;;
10987;SDS011;5547;42.672;23.230;2023-06-19T16:10:48;5.20;;;4.40;;
10987;SDS011;5547;42.672;23.230;2023-06-19T16:13:49;5.27;;;4.50;;
10987;SDS011;5547;42.672;23.230;2023-06-19T16:16:49;5.32;;;4.82;;
10987;SDS011;5547;42.672;23.230;2023-06-19T16:19:50;6.33;;;5.30;;
10987;SDS011;5547;42.672;23.230;2023-06-19T16:22:50;5.90;;;4.72;;
10987;SDS011;5547;42.672;23.230;2023-06-19T16:25:59;5.72;;;4.60;;
10987;SDS011;5547;42.672;23.230;2023-06-19T16:29:00;6.70;;;4.60;;
10987;SDS011;5547;42.672;23.230;2023-06-19T16:32:00;5.80;;;4.60;;
10987;SDS011;5547;42.672;23.230;2023-06-19T16:35:01;5.53;;;4.97;;
10987;SDS011;5547;42.672;23.230;2023-06-19T16:38:01;6.03;;;4.90;;
10987;SDS011;5547;42.672;23.230;2023-06-19T16:41:01;6.07;;;4.50;;
10987;SDS011;5547;42.672;23.230;2023-06-19T16:44:02;5.68;;;4.80;;
10987;SDS011;5547;42.672;23.230;2023-06-19T16:47:02;5.72;;;4.57;;
10987;SDS011;5547;42.672;23.230;2023-06-19T16:50:03;5.15;;;4.60;;
10987;SDS011;5547;42.672;23.230;2023-06-19T16:53:05;5.53;;;4.80;;
10987;SDS011;5547;42.672;23.230;2023-06-19T16:56:06;6.55;;;4.90;;
10987;SDS011;5547;42.672;23.230;2023-06-19T16:59:06;5.50;;;4.63;;
10987;SDS011;5547;42.672;23.230;2023-06-19T17:02:07;5.00;;;4.50;;
10987;SDS011;5547;42.672;23.230;2023-06-19T17:05:07;6.60;;;5.07;;
10987;SDS011;5547;42.672;23.230;2023-06-19T17:08:08;5.93;;;4.83;;
10987;SDS011;5547;42.672;23.230;2023-06-19T17:11:09;5.20;;;4.70;;
10987;SDS011;5547;42.672;23.230;2023-06-19T17:14:09;6.60;;;5.15;;
10987;SDS011;5547;42.672;23.230;2023-06-19T17:17:10;7.83;;;7.20;;
10987;SDS011;5547;42.672;23.230;2023-06-19T17:20:10;6.77;;;5.37;;
10987;SDS011;5547;42.672;23.230;2023-06-19T17:23:12;6.35;;;5.65;;
10987;SDS011;5547;42.672;23.230;2023-06-19T17:26:12;6.68;;;5.57;;
10987;SDS011;5547;42.672;23.230;2023-06-19T17:29:13;6.50;;;5.68;;
10987;SDS011;5547;42.672;23.230;2023-06-19T17:32:13;6.85;;;6.03;;
10987;SDS011;5547;42.672;23.230;2023-06-19T17:35:14;7.00;;;5.60;;
10987;SDS011;5547;42.672;23.230;2023-06-19T17:38:15;7.13;;;5.60;;
10987;SDS011;5547;42.672;23.230;2023-06-19T17:41:16;5.47;;;4.90;;
10987;SDS011;5547;42.672;23.230;2023-06-19T17:44:16;7.65;;;6.32;;
10987;SDS011;5547;42.672;23.230;2023-06-19T17:47:17;7.00;;;6.30;;
10987;SDS011;5547;42.672;23.230;2023-06-19T17:50:17;7.60;;;6.80;;
10987;SDS011;5547;42.672;23.230;2023-06-19T17:53:18;6.47;;;5.77;;
10987;SDS011;5547;42.672;23.230;2023-06-19T17:56:18;7.10;;;6.40;;
10987;SDS011;5547;42.672;23.230;2023-06-19T17:59:19;9.67;;;6.50;;
10987;SDS011;5547;42.672;23.230;2023-06-19T18:02:19;8.63;;;6.30;;
10987;SDS011;5547;42.672;23.230;2023-06-19T18:05:19;6.70;;;5.87;;
10987;SDS011;5547;42.672;23.230;2023-06-19T18:08:20;7.13;;;6.00;;
10987;SDS011;5547;42.672;23.230;2023-06-19T18:11:20;7.85;;;6.70;;
10987;SDS011;5547;42.672;23.230;2023-06-19T18:14:21;9.10;;;7.22;;